createdAt,value
2019-02-26T00:00:27.480Z,20.32
2019-02-26T00:02:59.320Z,20.88
2019-02-26T00:05:28.435Z,14.75
2019-02-26T00:07:57.827Z,11.57
2019-02-26T00:10:27.236Z,10.82
2019-02-26T00:12:56.801Z,14.93
2019-02-26T00:15:25.419Z,13.40
2019-02-26T00:17:54.011Z,9.60
2019-02-26T00:20:22.610Z,17.07
2019-02-26T00:22:52.981Z,17.10
2019-02-26T00:25:21.831Z,20.05
2019-02-26T00:27:51.883Z,13.83
2019-02-26T00:30:20.667Z,15.40
2019-02-26T00:32:49.514Z,19.85
2019-02-26T00:35:19.078Z,13.83
2019-02-26T00:37:49.397Z,19.62
2019-02-26T00:40:20.239Z,13.18
2019-02-26T00:42:52.209Z,15.80
2019-02-26T00:45:22.263Z,19.40
2019-02-26T00:47:48.973Z,15.38
2019-02-26T00:50:17.533Z,14.47
2019-02-26T00:52:45.987Z,13.53
2019-02-26T00:55:14.591Z,13.85
2019-02-26T00:57:43.266Z,10.88
2019-02-26T01:00:18.086Z,11.28
2019-02-26T01:02:46.702Z,15.30
2019-02-26T01:05:16.178Z,13.40
2019-02-26T01:07:48.805Z,13.48
2019-02-26T01:10:18.155Z,12.88
2019-02-26T01:12:46.059Z,15.63
2019-02-26T01:15:17.654Z,16.70
2019-02-26T01:17:46.547Z,18.60
2019-02-26T01:20:19.588Z,16.62
2019-02-26T01:22:49.157Z,17.35
2019-02-26T01:25:18.595Z,15.40
2019-02-26T01:27:48.199Z,20.25
2019-02-26T01:30:23.700Z,19.55
2019-02-26T01:32:48.327Z,19.92
2019-02-26T01:35:16.929Z,16.45
2019-02-26T01:37:45.507Z,27.45
2019-02-26T01:40:16.357Z,15.15
2019-02-26T01:42:49.842Z,18.20
2019-02-26T01:45:34.299Z,16.60
2019-02-26T01:48:04.013Z,18.50
2019-02-26T01:50:33.846Z,27.80
2019-02-26T01:53:03.275Z,16.27
2019-02-26T01:55:31.826Z,20.48
2019-02-26T01:58:00.283Z,17.35
2019-02-26T02:00:28.887Z,15.58
2019-02-26T02:02:57.438Z,14.95
2019-02-26T02:05:28.255Z,11.28
2019-02-26T02:07:56.272Z,12.05
2019-02-26T02:10:24.816Z,16.87
2019-02-26T02:12:55.223Z,13.55
2019-02-26T02:15:23.924Z,11.33
2019-02-26T02:17:52.567Z,13.93
2019-02-26T02:20:21.669Z,11.73
2019-02-26T02:22:50.288Z,11.53
2019-02-26T02:25:18.847Z,12.80
2019-02-26T02:27:51.652Z,15.72
2019-02-26T02:30:23.185Z,12.23
2019-02-26T02:32:54.068Z,11.70
2019-02-26T02:35:19.639Z,9.18
2019-02-26T02:37:50.779Z,9.20
2019-02-26T02:40:18.690Z,12.33
2019-02-26T02:42:49.230Z,11.15
2019-02-26T02:45:20.709Z,11.95
2019-02-26T02:47:47.691Z,13.30
2019-02-26T02:50:18.324Z,9.15
2019-02-26T02:52:46.487Z,13.75
2019-02-26T02:55:18.530Z,14.65
2019-02-26T02:57:48.653Z,9.53
2019-02-26T03:00:16.881Z,18.87
2019-02-26T03:02:46.439Z,11.63
2019-02-26T03:05:15.794Z,8.95
2019-02-26T03:07:45.835Z,11.68
2019-02-26T03:10:15.296Z,10.35
2019-02-26T03:12:47.643Z,9.63
2019-02-26T03:15:16.072Z,9.85
2019-02-26T03:17:44.642Z,11.70
2019-02-26T03:20:14.333Z,12.23
2019-02-26T03:22:46.100Z,18.73
2019-02-26T03:25:20.181Z,10.05
2019-02-26T03:27:47.414Z,11.85
2019-02-26T03:30:26.098Z,15.70
2019-02-26T03:32:55.914Z,9.93
2019-02-26T03:35:19.685Z,12.40
2019-02-26T03:37:51.504Z,18.25
2019-02-26T03:40:20.905Z,10.90
2019-02-26T03:42:49.527Z,13.20
2019-02-26T03:45:23.841Z,10.10
2019-02-26T03:47:48.243Z,9.60
2019-02-26T03:50:16.866Z,16.45
2019-02-26T03:52:45.561Z,15.10
2019-02-26T03:55:18.341Z,9.85
2019-02-26T03:57:47.376Z,12.90
2019-02-26T04:00:20.063Z,19.23
2019-02-26T04:02:50.931Z,11.18
2019-02-26T04:05:18.309Z,12.50
2019-02-26T04:07:49.882Z,14.50
2019-02-26T04:10:17.172Z,14.85
2019-02-26T04:12:49.015Z,16.90
2019-02-26T04:15:17.000Z,13.13
2019-02-26T04:17:45.555Z,13.68
2019-02-26T04:20:16.045Z,12.78
2019-02-26T04:22:48.900Z,11.05
2019-02-26T04:25:17.946Z,11.20
2019-02-26T04:28:07.762Z,9.73
2019-02-26T04:30:52.446Z,12.58
2019-02-26T04:33:53.732Z,8.53
2019-02-26T04:36:27.480Z,10.98
2019-02-26T04:39:19.099Z,9.53
2019-02-26T04:42:16.830Z,9.80
2019-02-26T04:45:08.913Z,11.57
2019-02-26T04:48:00.730Z,16.87
2019-02-26T04:50:32.385Z,16.90
2019-02-26T04:53:02.038Z,9.83
2019-02-26T04:55:32.448Z,9.45
2019-02-26T04:58:00.031Z,7.92
2019-02-26T05:00:30.454Z,10.35
2019-02-26T05:02:58.870Z,10.50
2019-02-26T05:05:30.657Z,9.40
2019-02-26T05:07:57.590Z,14.58
2019-02-26T05:10:28.545Z,13.43
2019-02-26T05:12:57.250Z,10.80
2019-02-26T05:15:30.044Z,10.03
2019-02-26T05:17:56.604Z,7.55
2019-02-26T05:20:25.134Z,12.82
2019-02-26T05:23:00.044Z,9.18
2019-02-26T05:25:25.683Z,23.35
2019-02-26T05:27:54.231Z,10.05
2019-02-26T05:30:22.839Z,13.15
2019-02-26T05:32:54.100Z,10.40
2019-02-26T05:35:23.375Z,11.43
2019-02-26T05:37:51.746Z,8.60
2019-02-26T05:40:22.208Z,9.25
2019-02-26T05:42:50.457Z,9.15
2019-02-26T05:45:18.983Z,9.05
2019-02-26T05:47:51.276Z,17.00
2019-02-26T05:50:19.428Z,10.55
2019-02-26T05:52:50.423Z,10.65
2019-02-26T05:55:20.566Z,9.18
2019-02-26T05:57:48.383Z,9.00
2019-02-26T06:00:20.635Z,9.53
2019-02-26T06:02:50.400Z,8.15
2019-02-26T06:05:20.279Z,11.63
2019-02-26T06:07:47.465Z,11.75
2019-02-26T06:10:16.012Z,6.50
2019-02-26T06:12:46.624Z,8.70
2019-02-26T06:15:14.731Z,10.00
2019-02-26T06:17:45.249Z,11.48
2019-02-26T06:20:16.298Z,8.90
2019-02-26T06:22:44.957Z,8.38
2019-02-26T06:25:19.176Z,9.03
2019-02-26T06:27:43.738Z,9.13
2019-02-26T06:30:14.138Z,7.92
2019-02-26T06:32:44.538Z,12.05
2019-02-26T06:35:19.190Z,10.65
2019-02-26T06:37:47.011Z,19.57
2019-02-26T06:40:16.973Z,12.15
2019-02-26T06:42:45.443Z,9.33
2019-02-26T06:45:16.561Z,9.40
2019-02-26T06:47:45.807Z,8.90
2019-02-26T06:50:17.991Z,8.53
2019-02-26T06:52:47.515Z,11.65
2019-02-26T06:55:15.486Z,12.03
2019-02-26T06:57:47.067Z,6.92
2019-02-26T07:00:18.847Z,7.35
2019-02-26T07:02:47.055Z,7.22
2019-02-26T07:05:15.903Z,8.45
2019-02-26T07:07:44.422Z,7.20
2019-02-26T07:10:18.313Z,8.95
2019-02-26T07:12:48.159Z,7.30
2019-02-26T07:15:16.401Z,8.95
2019-02-26T07:17:45.951Z,13.83
2019-02-26T07:20:14.906Z,8.85
2019-02-26T07:22:44.131Z,10.28
2019-02-26T07:25:15.957Z,9.50
2019-02-26T07:27:43.850Z,10.53
2019-02-26T07:30:12.790Z,16.30
2019-02-26T07:32:43.092Z,10.40
2019-02-26T07:35:13.784Z,12.90
2019-02-26T07:37:41.745Z,12.63
2019-02-26T07:40:15.867Z,8.90
2019-02-26T07:42:46.217Z,7.55
2019-02-26T07:45:15.357Z,9.55
2019-02-26T07:47:45.291Z,11.65
2019-02-26T07:50:14.959Z,10.40
2019-02-26T07:52:44.410Z,7.45
2019-02-26T07:55:16.832Z,7.90
2019-02-26T07:57:45.470Z,9.18
2019-02-26T08:00:16.659Z,8.10
2019-02-26T08:02:45.132Z,11.08
2019-02-26T08:05:13.724Z,11.00
2019-02-26T08:07:44.437Z,10.30
2019-02-26T08:10:19.575Z,10.45
2019-02-26T08:12:47.792Z,11.03
2019-02-26T08:15:16.447Z,6.35
2019-02-26T08:17:47.846Z,8.05
2019-02-26T08:20:15.559Z,6.05
2019-02-26T08:22:44.163Z,7.65
2019-02-26T08:25:13.728Z,8.28
2019-02-26T08:27:42.339Z,9.30
2019-02-26T08:30:18.521Z,6.55
2019-02-26T08:32:48.433Z,6.83
2019-02-26T08:35:18.879Z,8.08
2019-02-26T08:37:46.384Z,7.65
2019-02-26T08:40:15.900Z,11.05
2019-02-26T08:42:44.418Z,8.80
2019-02-26T08:45:23.146Z,8.03
2019-02-26T08:47:50.542Z,7.47
2019-02-26T08:50:19.165Z,7.75
2019-02-26T08:52:50.046Z,6.55
2019-02-26T08:55:20.904Z,9.48
2019-02-26T08:57:51.270Z,6.75
2019-02-26T09:00:21.879Z,7.58
2019-02-26T09:02:53.822Z,17.17
2019-02-26T09:05:20.536Z,10.60
2019-02-26T09:07:50.468Z,8.53
2019-02-26T09:10:22.707Z,13.15
2019-02-26T09:12:51.676Z,15.03
2019-02-26T09:15:20.575Z,11.53
2019-02-26T09:17:49.049Z,19.90
2019-02-26T09:20:18.919Z,12.20
2019-02-26T09:22:50.214Z,6.33
2019-02-26T09:25:17.815Z,7.17
2019-02-26T09:27:46.352Z,7.80
2019-02-26T09:30:19.305Z,7.23
2019-02-26T09:32:48.018Z,5.93
2019-02-26T09:35:21.827Z,7.07
2019-02-26T09:37:50.182Z,5.23
2019-02-26T09:40:20.286Z,6.77
2019-02-26T09:42:52.285Z,5.03
2019-02-26T09:45:28.638Z,6.90
2019-02-26T09:47:57.963Z,6.10
2019-02-26T09:50:26.029Z,10.13
2019-02-26T09:52:56.516Z,11.43
2019-02-26T09:55:24.760Z,13.37
2019-02-26T09:57:53.364Z,9.50
2019-02-26T10:00:26.098Z,13.40
2019-02-26T10:02:53.097Z,11.73
2019-02-26T10:05:21.697Z,11.73
2019-02-26T10:07:52.278Z,10.10
2019-02-26T10:10:21.650Z,10.43
2019-02-26T10:12:51.768Z,4.50
2019-02-26T10:15:20.439Z,5.10
2019-02-26T10:17:49.042Z,9.83
2019-02-26T10:20:29.699Z,11.00
2019-02-26T10:23:00.654Z,12.43
2019-02-26T10:25:31.057Z,7.90
2019-02-26T10:28:03.079Z,11.73
2019-02-26T10:30:31.420Z,5.70
2019-02-26T10:33:01.981Z,9.20
2019-02-26T10:35:33.129Z,4.77
2019-02-26T10:38:02.680Z,4.87
2019-02-26T10:40:35.123Z,5.13
2019-02-26T10:43:00.190Z,5.80
2019-02-26T10:45:35.982Z,5.40
2019-02-26T10:48:02.342Z,8.83
2019-02-26T10:50:31.852Z,3.93
2019-02-26T10:53:07.113Z,5.20
2019-02-26T10:55:38.209Z,4.93
2019-02-26T10:58:04.726Z,5.50
2019-02-26T11:00:34.727Z,12.77
2019-02-26T11:03:01.769Z,5.90
2019-02-26T11:05:30.296Z,7.10
2019-02-26T11:08:02.370Z,5.83
2019-02-26T11:10:29.167Z,4.33
2019-02-26T11:12:59.614Z,6.77
2019-02-26T11:15:31.043Z,11.53
2019-02-26T11:17:58.110Z,8.90
2019-02-26T11:20:30.036Z,2.93
2019-02-26T11:22:56.828Z,3.00
2019-02-26T11:25:27.532Z,5.67
2019-02-26T11:27:55.784Z,2.73
2019-02-26T11:30:30.208Z,6.80
2019-02-26T11:33:02.132Z,9.50
2019-02-26T11:35:28.090Z,5.83
2019-02-26T11:37:57.996Z,8.10
2019-02-26T11:40:30.253Z,8.57
2019-02-26T11:42:59.958Z,5.33
2019-02-26T11:45:27.921Z,6.00
2019-02-26T11:47:57.966Z,5.30
2019-02-26T11:50:28.098Z,5.00
2019-02-26T11:52:57.335Z,3.53
2019-02-26T11:55:28.556Z,1.63
2019-02-26T11:57:56.262Z,4.93
2019-02-26T12:00:33.959Z,4.30
2019-02-26T12:03:00.787Z,1.70
2019-02-26T12:05:33.105Z,2.13
2019-02-26T12:07:59.506Z,1.63
2019-02-26T12:10:30.505Z,1.90
2019-02-26T12:12:59.976Z,6.80
2019-02-26T12:15:30.113Z,1.67
2019-02-26T12:17:58.828Z,3.60
2019-02-26T12:20:27.590Z,2.70
2019-02-26T12:22:56.210Z,2.87
2019-02-26T12:25:24.802Z,1.43
2019-02-26T12:27:53.326Z,2.70
2019-02-26T12:30:23.107Z,1.43
2019-02-26T12:32:54.442Z,4.30
2019-02-26T12:35:21.975Z,2.80
2019-02-26T12:37:52.783Z,3.93
2019-02-26T12:40:23.385Z,4.33
2019-02-26T12:42:51.159Z,4.07
2019-02-26T12:45:21.339Z,3.50
2019-02-26T12:47:53.063Z,1.17
2019-02-26T12:50:29.093Z,2.57
2019-02-26T12:52:56.787Z,1.53
2019-02-26T12:55:29.573Z,1.43
2019-02-26T12:57:56.433Z,1.13
2019-02-26T13:00:26.278Z,4.60
2019-02-26T13:02:55.141Z,4.63
2019-02-26T13:05:23.643Z,1.33
2019-02-26T13:07:52.168Z,1.40
2019-02-26T13:10:27.733Z,1.50
2019-02-26T13:15:26.521Z,8.10
2019-02-26T13:17:55.045Z,8.80
2019-02-26T13:20:25.792Z,1.30
2019-02-26T13:22:56.965Z,3.13
2019-02-26T13:25:26.707Z,1.17
2019-02-26T13:27:54.979Z,1.00
2019-02-26T13:30:27.168Z,1.20
2019-02-26T13:33:00.024Z,1.97
2019-02-26T13:35:25.987Z,0.90
2019-02-26T13:37:56.848Z,1.30
2019-02-26T13:40:25.675Z,7.87
2019-02-26T13:45:25.916Z,2.60
2019-02-26T13:48:00.864Z,3.13
2019-02-26T13:50:30.033Z,4.00
2019-02-26T13:52:58.658Z,4.00
2019-02-26T13:55:27.207Z,4.63
2019-02-26T13:57:55.799Z,7.13
2019-02-26T14:00:26.724Z,2.97
2019-02-26T14:02:54.661Z,2.00
2019-02-26T14:05:23.337Z,4.50
2019-02-26T14:07:51.999Z,2.90
2019-02-26T14:10:24.631Z,3.87
2019-02-26T14:12:53.714Z,4.43
2019-02-26T14:15:26.296Z,2.67
2019-02-26T14:17:54.839Z,3.43
2019-02-26T14:20:23.437Z,2.73
2019-02-26T14:22:52.044Z,2.83
2019-02-26T14:25:20.705Z,4.80
2019-02-26T14:27:49.255Z,2.63
2019-02-26T14:30:21.910Z,1.90
2019-02-26T14:32:50.553Z,3.67
2019-02-26T14:35:19.144Z,3.03
2019-02-26T14:37:47.831Z,7.73
2019-02-26T14:40:20.198Z,2.00
2019-02-26T14:42:48.917Z,5.13
2019-02-26T14:45:27.551Z,2.20
2019-02-26T14:47:56.172Z,2.40
2019-02-26T14:50:26.367Z,4.93
2019-02-26T14:52:55.251Z,2.20
2019-02-26T14:55:23.779Z,4.57
2019-02-26T14:57:52.311Z,4.03
2019-02-26T15:00:34.587Z,5.80
2019-02-26T15:03:03.186Z,9.43
2019-02-26T15:05:31.728Z,4.20
2019-02-26T15:08:00.261Z,4.00
2019-02-26T15:10:28.809Z,2.50
2019-02-26T15:12:57.709Z,2.47
2019-02-26T15:15:26.259Z,3.63
2019-02-26T15:17:54.771Z,9.10
2019-02-26T15:20:24.745Z,4.03
2019-02-26T15:22:53.438Z,3.90
2019-02-26T15:25:30.122Z,3.60
2019-02-26T15:28:04.999Z,6.30
2019-02-26T15:30:30.038Z,9.10
2019-02-26T15:32:58.564Z,5.30
2019-02-26T15:35:27.388Z,4.70
2019-02-26T15:37:55.935Z,7.73
2019-02-26T15:40:24.467Z,2.83
2019-02-26T15:42:56.230Z,11.13
2019-02-26T15:45:29.009Z,3.77
2019-02-26T15:47:57.160Z,3.77
2019-02-26T15:50:25.829Z,12.20
2019-02-26T15:52:54.506Z,5.40
2019-02-26T15:55:30.743Z,9.40
2019-02-26T15:58:03.103Z,7.07
2019-02-26T16:00:29.712Z,7.83
2019-02-26T16:02:59.363Z,4.13
2019-02-26T16:05:34.075Z,13.63
2019-02-26T16:08:02.620Z,1.93
2019-02-26T16:10:31.144Z,2.00
2019-02-26T16:13:05.510Z,2.17
2019-02-26T16:15:38.450Z,3.93
2019-02-26T16:18:06.995Z,4.00
2019-02-26T16:20:35.612Z,6.20
2019-02-26T16:23:04.208Z,11.60
2019-02-26T16:25:32.860Z,9.40
2019-02-26T16:28:01.391Z,9.13
2019-02-26T16:30:30.191Z,16.10
2019-02-26T16:32:58.718Z,11.43
2019-02-26T16:35:27.328Z,3.43
2019-02-26T16:37:55.925Z,6.37
2019-02-26T16:40:24.472Z,6.27
2019-02-26T16:42:53.052Z,3.97
2019-02-26T16:45:28.629Z,7.90
2019-02-26T16:47:57.519Z,10.50
2019-02-26T16:50:28.590Z,23.07
2019-02-26T16:52:57.928Z,19.07
2019-02-26T16:55:27.587Z,14.60
2019-02-26T16:57:56.174Z,7.37
2019-02-26T17:00:29.087Z,7.90
2019-02-26T17:03:00.999Z,12.10
2019-02-26T17:05:28.080Z,6.87
2019-02-26T17:07:56.802Z,5.37
2019-02-26T17:10:29.181Z,7.17
2019-02-26T17:12:56.786Z,7.23
2019-02-26T17:15:30.848Z,18.87
2019-02-26T17:17:59.505Z,8.67
2019-02-26T17:20:28.031Z,8.93
2019-02-26T17:22:56.726Z,6.50
2019-02-26T17:25:28.495Z,9.67
2019-02-26T17:27:55.643Z,5.70
2019-02-26T17:30:24.814Z,13.30
2019-02-26T17:32:53.558Z,13.63
2019-02-26T17:35:22.165Z,20.53
2019-02-26T17:37:50.707Z,8.13
2019-02-26T17:40:21.075Z,3.57
2019-02-26T17:42:51.330Z,18.57
2019-02-26T17:45:22.591Z,60.60
2019-02-26T17:47:51.144Z,48.17
2019-02-26T17:50:28.458Z,27.73
2019-02-26T17:52:57.008Z,24.10
2019-02-26T17:55:25.740Z,22.07
2019-02-26T17:57:54.340Z,20.33
2019-02-26T18:00:25.496Z,26.13
2019-02-26T18:02:54.058Z,24.57
2019-02-26T18:05:22.732Z,21.70
2019-02-26T18:07:51.356Z,17.50
2019-02-26T18:10:21.845Z,23.30
2019-02-26T18:12:50.385Z,9.13
2019-02-26T18:15:20.760Z,8.10
2019-02-26T18:17:49.384Z,5.07
2019-02-26T18:20:22.068Z,8.10
2019-02-26T18:22:50.618Z,8.53
2019-02-26T18:25:25.634Z,10.03
2019-02-26T18:27:54.091Z,10.20
2019-02-26T18:30:25.718Z,10.03
2019-02-26T18:32:57.395Z,11.17
2019-02-26T18:35:24.445Z,13.47
2019-02-26T18:37:53.035Z,20.87
2019-02-26T18:40:21.740Z,12.57
2019-02-26T18:42:50.264Z,8.60
2019-02-26T18:45:29.110Z,12.63
2019-02-26T18:47:57.704Z,19.13
2019-02-26T18:50:28.636Z,12.73
2019-02-26T18:52:58.306Z,17.33
2019-02-26T18:55:28.834Z,14.67
2019-02-26T18:57:57.692Z,18.13
2019-02-26T19:00:28.627Z,24.37
2019-02-26T19:02:57.186Z,21.40
2019-02-26T19:05:25.844Z,21.73
2019-02-26T19:07:54.468Z,18.80
2019-02-26T19:10:23.134Z,17.47
2019-02-26T19:12:51.765Z,21.82
2019-02-26T19:15:31.241Z,16.10
2019-02-26T19:18:02.500Z,13.22
2019-02-26T19:20:35.319Z,16.55
2019-02-26T19:23:03.880Z,12.40
2019-02-26T19:25:32.410Z,19.87
2019-02-26T19:28:00.949Z,18.12
2019-02-26T19:30:29.567Z,10.43
2019-02-26T19:32:58.107Z,13.00
2019-02-26T19:35:26.661Z,17.70
2019-02-26T19:38:00.037Z,9.20
2019-02-26T19:40:40.683Z,8.83
2019-02-26T19:43:09.298Z,12.93
2019-02-26T19:45:37.915Z,10.03
2019-02-26T19:48:06.455Z,10.10
2019-02-26T19:50:35.003Z,13.72
2019-02-26T19:53:03.547Z,16.75
2019-02-26T19:55:41.090Z,27.50
2019-02-26T19:58:09.620Z,19.02
2019-02-26T20:00:38.254Z,19.30
2019-02-26T20:03:06.856Z,15.63
2019-02-26T20:05:35.400Z,18.48
2019-02-26T20:08:05.283Z,17.85
2019-02-26T20:10:35.195Z,17.65
2019-02-26T20:13:04.172Z,11.97
2019-02-26T20:15:33.165Z,11.68
2019-02-26T20:18:01.715Z,9.90
2019-02-26T20:20:30.522Z,13.08
2019-02-26T20:22:59.118Z,11.83
2019-02-26T20:25:27.675Z,10.30
2019-02-26T20:28:01.825Z,10.65
2019-02-26T20:30:26.503Z,6.62
2019-02-26T20:32:55.047Z,10.68
2019-02-26T20:35:23.565Z,16.95
2019-02-26T20:37:52.171Z,9.83
2019-02-26T20:40:24.993Z,13.28
2019-02-26T20:42:53.579Z,8.93
2019-02-26T20:45:22.806Z,13.98
2019-02-26T20:47:51.589Z,14.10
2019-02-26T20:50:21.771Z,13.80
2019-02-26T20:52:50.664Z,14.85
2019-02-26T20:55:23.695Z,11.85
2019-02-26T20:57:52.250Z,13.28
2019-02-26T21:00:24.915Z,10.93
2019-02-26T21:02:51.470Z,17.60
2019-02-26T21:05:20.000Z,23.77
2019-02-26T21:07:49.673Z,19.87
2019-02-26T21:10:19.584Z,20.62
2019-02-26T21:12:48.273Z,16.77
2019-02-26T21:15:24.699Z,14.78
2019-02-26T21:17:57.749Z,17.57
2019-02-26T21:20:24.323Z,13.13
2019-02-26T21:22:54.904Z,12.95
2019-02-26T21:25:23.111Z,15.58
2019-02-26T21:27:51.650Z,19.73
2019-02-26T21:30:22.606Z,16.60
2019-02-26T21:32:51.060Z,16.77
2019-02-26T21:35:20.713Z,16.10
2019-02-26T21:37:49.819Z,20.52
2019-02-26T21:40:18.456Z,32.08
2019-02-26T21:42:47.206Z,79.35
2019-02-26T21:45:17.462Z,27.70
2019-02-26T21:47:46.134Z,124.40
2019-02-26T21:50:15.623Z,135.60
2019-02-26T21:52:44.228Z,41.02
2019-02-26T21:55:13.907Z,66.02
2019-02-26T21:57:42.444Z,194.35
2019-02-26T22:00:22.103Z,223.87
2019-02-26T22:02:52.414Z,84.37
2019-02-26T22:05:20.825Z,32.83
2019-02-26T22:07:52.143Z,39.48
2019-02-26T22:10:20.982Z,30.57
2019-02-26T22:12:49.596Z,34.95
2019-02-26T22:15:18.260Z,34.08
2019-02-26T22:17:46.878Z,30.75
2019-02-26T22:20:26.586Z,22.50
2019-02-26T22:22:49.328Z,17.45
2019-02-26T22:25:18.016Z,12.58
2019-02-26T22:27:46.610Z,16.65
2019-02-26T22:30:21.437Z,10.78
2019-02-26T22:32:47.570Z,12.07
2019-02-26T22:35:16.078Z,27.10
2019-02-26T22:37:44.543Z,9.33
2019-02-26T22:40:14.004Z,13.62
2019-02-26T22:42:42.894Z,9.30
2019-02-26T22:45:13.255Z,6.75
2019-02-26T22:47:43.927Z,9.85
2019-02-26T22:50:13.622Z,10.63
2019-02-26T22:52:42.239Z,12.65
2019-02-26T22:55:16.172Z,10.80
2019-02-26T22:57:43.350Z,23.83
2019-02-26T23:00:49.447Z,9.60
2019-02-26T23:03:18.407Z,12.03
2019-02-26T23:05:47.095Z,10.45
2019-02-26T23:08:15.713Z,14.68
2019-02-26T23:10:44.303Z,12.75
2019-02-26T23:13:13.187Z,9.28
2019-02-26T23:15:44.905Z,12.05
2019-02-26T23:18:13.358Z,19.30
2019-02-26T23:20:42.864Z,9.30
2019-02-26T23:23:12.061Z,10.43
2019-02-26T23:25:40.823Z,9.98
2019-02-26T23:28:09.363Z,9.00
2019-02-26T23:30:37.947Z,13.35
2019-02-26T23:33:07.453Z,9.30
2019-02-26T23:35:36.113Z,11.12
2019-02-26T23:38:08.012Z,9.95
2019-02-26T23:40:35.103Z,9.80
2019-02-26T23:43:03.778Z,10.15
2019-02-26T23:45:32.445Z,9.63
2019-02-26T23:48:00.970Z,6.58
2019-02-26T23:50:29.663Z,14.58
2019-02-26T23:53:00.881Z,10.03
2019-02-26T23:55:28.373Z,10.18
2019-02-26T23:57:57.927Z,9.20
